sensor_id;sensor_type;location;lat;lon;timestamp;pressure;altitude;pressure_sealevel;temperature;humidity
74169;BME280;62523;53.336;83.690;2023-05-23T00:04:36;99629.25;;;16.01;37.15
74169;BME280;62523;53.336;83.690;2023-05-23T00:09:38;99621.06;;;16.15;36.90
74169;BME280;62523;53.336;83.690;2023-05-23T00:14:39;99624.75;;;16.25;36.22
74169;BME280;62523;53.336;83.690;2023-05-23T00:19:41;99614.34;;;16.22;35.91
74169;BME280;62523;53.336;83.690;2023-05-23T00:24:45;99620.09;;;16.05;36.00
74169;BME280;62523;53.336;83.690;2023-05-23T00:29:47;99621.19;;;16.49;35.60
74169;BME280;62523;53.336;83.690;2023-05-23T00:34:48;99614.91;;;16.85;34.94
74169;BME280;62523;53.336;83.690;2023-05-23T00:39:50;99623.25;;;17.26;34.13
74169;BME280;62523;53.336;83.690;2023-05-23T00:44:51;99629.66;;;17.12;34.67
74169;BME280;62523;53.336;83.690;2023-05-23T00:49:53;99627.78;;;17.80;33.55
74169;BME280;62523;53.336;83.690;2023-05-23T00:54:54;99633.16;;;17.35;33.78
74169;BME280;62523;53.336;83.690;2023-05-23T00:59:56;99620.47;;;16.47;34.89
74169;BME280;62523;53.336;83.690;2023-05-23T01:04:58;99628.31;;;17.51;33.47
74169;BME280;62523;53.336;83.690;2023-05-23T01:09:59;99628.88;;;18.21;32.53
74169;BME280;62523;53.336;83.690;2023-05-23T01:20:10;99633.06;;;17.36;34.37
74169;BME280;62523;53.336;83.690;2023-05-23T01:30:51;99627.84;;;17.46;33.33
74169;BME280;62523;53.336;83.690;2023-05-23T01:35:55;99627.22;;;18.62;32.36
74169;BME280;62523;53.336;83.690;2023-05-23T01:40:58;99642.38;;;17.19;34.35
74169;BME280;62523;53.336;83.690;2023-05-23T01:45:59;99651.72;;;17.25;34.43
74169;BME280;62523;53.336;83.690;2023-05-23T01:51:01;99639.66;;;18.73;32.80
74169;BME280;62523;53.336;83.690;2023-05-23T01:56:03;99653.97;;;17.07;34.12
74169;BME280;62523;53.336;83.690;2023-05-23T02:01:05;99656.28;;;17.46;33.68
74169;BME280;62523;53.336;83.690;2023-05-23T02:06:07;99659.28;;;17.75;33.58
74169;BME280;62523;53.336;83.690;2023-05-23T02:11:09;99650.50;;;17.40;34.06
74169;BME280;62523;53.336;83.690;2023-05-23T02:16:11;99647.25;;;16.68;35.68
74169;BME280;62523;53.336;83.690;2023-05-23T02:21:15;99658.13;;;15.81;37.56
74169;BME280;62523;53.336;83.690;2023-05-23T02:26:17;99654.28;;;15.85;37.06
74169;BME280;62523;53.336;83.690;2023-05-23T02:31:18;99658.31;;;15.78;36.07
74169;BME280;62523;53.336;83.690;2023-05-23T02:36:20;99656.41;;;16.04;35.89
74169;BME280;62523;53.336;83.690;2023-05-23T02:41:22;99658.88;;;16.43;35.81
74169;BME280;62523;53.336;83.690;2023-05-23T02:46:24;99666.63;;;16.46;35.42
74169;BME280;62523;53.336;83.690;2023-05-23T02:51:26;99671.19;;;16.79;35.52
74169;BME280;62523;53.336;83.690;2023-05-23T02:56:28;99674.91;;;16.30;33.50
74169;BME280;62523;53.336;83.690;2023-05-23T03:01:29;99673.44;;;16.50;34.32
74169;BME280;62523;53.336;83.690;2023-05-23T03:06:31;99684.50;;;16.79;32.39
74169;BME280;62523;53.336;83.690;2023-05-23T03:11:35;99668.84;;;16.87;30.91
74169;BME280;62523;53.336;83.690;2023-05-23T03:16:37;99673.53;;;16.95;30.98
74169;BME280;62523;53.336;83.690;2023-05-23T03:21:38;99653.53;;;17.36;29.11
74169;BME280;62523;53.336;83.690;2023-05-23T03:26:40;99650.59;;;17.50;27.16
74169;BME280;62523;53.336;83.690;2023-05-23T03:31:41;99654.13;;;17.17;27.01
74169;BME280;62523;53.336;83.690;2023-05-23T03:36:43;99657.72;;;17.61;26.87
74169;BME280;62523;53.336;83.690;2023-05-23T03:41:44;99647.09;;;17.16;27.39
74169;BME280;62523;53.336;83.690;2023-05-23T03:46:46;99648.28;;;17.68;27.60
74169;BME280;62523;53.336;83.690;2023-05-23T03:51:49;99646.00;;;17.41;27.95
74169;BME280;62523;53.336;83.690;2023-05-23T03:56:51;99644.44;;;17.38;27.46
74169;BME280;62523;53.336;83.690;2023-05-23T04:01:54;99657.25;;;17.56;28.46
74169;BME280;62523;53.336;83.690;2023-05-23T04:06:59;99663.78;;;17.52;28.54
74169;BME280;62523;53.336;83.690;2023-05-23T04:12:02;99662.72;;;17.43;29.35
74169;BME280;62523;53.336;83.690;2023-05-23T04:17:04;99667.41;;;17.73;28.16
74169;BME280;62523;53.336;83.690;2023-05-23T04:22:06;99661.47;;;17.81;27.77
74169;BME280;62523;53.336;83.690;2023-05-23T04:27:08;99660.63;;;17.69;27.48
74169;BME280;62523;53.336;83.690;2023-05-23T04:32:10;99659.88;;;17.78;27.06
74169;BME280;62523;53.336;83.690;2023-05-23T04:37:12;99658.81;;;18.25;26.65
74169;BME280;62523;53.336;83.690;2023-05-23T04:42:14;99662.16;;;18.38;26.51
74169;BME280;62523;53.336;83.690;2023-05-23T04:47:36;99650.06;;;18.97;24.17
74169;BME280;62523;53.336;83.690;2023-05-23T04:52:48;99647.47;;;18.44;23.43
74169;BME280;62523;53.336;83.690;2023-05-23T04:57:50;99660.69;;;18.66;22.90
74169;BME280;62523;53.336;83.690;2023-05-23T05:02:52;99636.66;;;19.08;22.77
74169;BME280;62523;53.336;83.690;2023-05-23T05:07:54;99641.56;;;18.82;23.14
74169;BME280;62523;53.336;83.690;2023-05-23T05:12:56;99626.63;;;18.37;22.79
74169;BME280;62523;53.336;83.690;2023-05-23T05:17:59;99630.53;;;18.75;22.99
74169;BME280;62523;53.336;83.690;2023-05-23T05:23:01;99628.00;;;18.74;22.21
74169;BME280;62523;53.336;83.690;2023-05-23T05:28:05;99632.25;;;18.76;22.77
74169;BME280;62523;53.336;83.690;2023-05-23T05:33:12;99623.31;;;18.45;22.67
74169;BME280;62523;53.336;83.690;2023-05-23T05:38:15;99621.25;;;18.49;22.96
74169;BME280;62523;53.336;83.690;2023-05-23T05:43:17;99611.13;;;18.85;22.49
74169;BME280;62523;53.336;83.690;2023-05-23T05:48:19;99608.22;;;18.76;22.30
74169;BME280;62523;53.336;83.690;2023-05-23T05:53:20;99608.59;;;18.93;22.04
74169;BME280;62523;53.336;83.690;2023-05-23T05:58:22;99590.00;;;18.81;22.69
74169;BME280;62523;53.336;83.690;2023-05-23T06:03:29;99591.19;;;19.29;22.45
74169;BME280;62523;53.336;83.690;2023-05-23T06:08:30;99588.97;;;19.03;22.38
74169;BME280;62523;53.336;83.690;2023-05-23T06:13:33;99580.97;;;19.34;21.93
74169;BME280;62523;53.336;83.690;2023-05-23T06:18:34;99589.31;;;19.10;22.01
74169;BME280;62523;53.336;83.690;2023-05-23T06:23:36;99577.66;;;19.11;21.88
74169;BME280;62523;53.336;83.690;2023-05-23T06:28:38;99587.06;;;19.56;22.11
74169;BME280;62523;53.336;83.690;2023-05-23T06:33:41;99570.31;;;19.54;21.31
74169;BME280;62523;53.336;83.690;2023-05-23T06:38:46;99566.44;;;19.87;20.88
74169;BME280;62523;53.336;83.690;2023-05-23T06:43:48;99560.28;;;19.77;21.83
74169;BME280;62523;53.336;83.690;2023-05-23T06:48:57;99563.44;;;19.51;21.57
74169;BME280;62523;53.336;83.690;2023-05-23T06:53:58;99565.41;;;19.49;20.93
74169;BME280;62523;53.336;83.690;2023-05-23T06:59:00;99574.25;;;18.99;22.02
74169;BME280;62523;53.336;83.690;2023-05-23T07:04:02;99560.81;;;19.20;21.50
74169;BME280;62523;53.336;83.690;2023-05-23T07:09:04;99554.16;;;19.55;21.39
74169;BME280;62523;53.336;83.690;2023-05-23T07:14:06;99543.53;;;19.84;20.87
74169;BME280;62523;53.336;83.690;2023-05-23T07:19:11;99553.38;;;19.84;20.37
74169;BME280;62523;53.336;83.690;2023-05-23T07:24:20;99567.31;;;19.88;20.59
74169;BME280;62523;53.336;83.690;2023-05-23T07:29:22;99556.81;;;19.46;20.34
74169;BME280;62523;53.336;83.690;2023-05-23T07:34:26;99551.25;;;19.97;20.12
74169;BME280;62523;53.336;83.690;2023-05-23T07:39:30;99559.00;;;19.71;20.38
74169;BME280;62523;53.336;83.690;2023-05-23T07:44:34;99571.34;;;19.72;20.29
74169;BME280;62523;53.336;83.690;2023-05-23T07:49:36;99551.94;;;20.19;19.40
74169;BME280;62523;53.336;83.690;2023-05-23T07:54:39;99550.28;;;19.89;19.72
74169;BME280;62523;53.336;83.690;2023-05-23T07:59:41;99555.47;;;20.19;19.57
74169;BME280;62523;53.336;83.690;2023-05-23T08:04:44;99538.28;;;20.02;19.73
74169;BME280;62523;53.336;83.690;2023-05-23T08:09:46;99538.56;;;20.29;19.98
74169;BME280;62523;53.336;83.690;2023-05-23T08:14:52;99532.78;;;20.33;19.50
74169;BME280;62523;53.336;83.690;2023-05-23T08:20:06;99527.69;;;20.59;19.48
74169;BME280;62523;53.336;83.690;2023-05-23T08:25:09;99524.84;;;20.51;19.48
74169;BME280;62523;53.336;83.690;2023-05-23T08:30:13;99523.22;;;20.21;19.17
74169;BME280;62523;53.336;83.690;2023-05-23T08:35:18;99509.41;;;20.25;19.08
74169;BME280;62523;53.336;83.690;2023-05-23T08:40:21;99508.09;;;20.49;19.24
74169;BME280;62523;53.336;83.690;2023-05-23T08:45:36;99499.50;;;20.65;18.95
74169;BME280;62523;53.336;83.690;2023-05-23T08:50:39;99509.81;;;20.40;18.42
74169;BME280;62523;53.336;83.690;2023-05-23T08:55:42;99503.81;;;20.19;18.78
74169;BME280;62523;53.336;83.690;2023-05-23T09:00:44;99492.22;;;20.38;19.09
74169;BME280;62523;53.336;83.690;2023-05-23T09:05:48;99500.09;;;20.59;18.55
74169;BME280;62523;53.336;83.690;2023-05-23T09:10:50;99500.72;;;20.71;18.30
74169;BME280;62523;53.336;83.690;2023-05-23T09:16:09;99501.66;;;20.32;17.84
74169;BME280;62523;53.336;83.690;2023-05-23T09:21:19;99498.38;;;20.68;18.02
74169;BME280;62523;53.336;83.690;2023-05-23T09:26:38;99486.66;;;20.69;18.05
74169;BME280;62523;53.336;83.690;2023-05-23T09:31:39;99490.19;;;20.50;17.36
74169;BME280;62523;53.336;83.690;2023-05-23T09:36:41;99497.84;;;20.92;17.11
74169;BME280;62523;53.336;83.690;2023-05-23T09:41:47;99488.53;;;20.49;17.23
74169;BME280;62523;53.336;83.690;2023-05-23T09:46:50;99490.13;;;20.41;17.26
74169;BME280;62523;53.336;83.690;2023-05-23T09:51:59;99487.50;;;20.69;17.79
74169;BME280;62523;53.336;83.690;2023-05-23T09:57:01;99481.22;;;20.51;17.50
74169;BME280;62523;53.336;83.690;2023-05-23T10:02:10;99486.94;;;20.56;17.49
74169;BME280;62523;53.336;83.690;2023-05-23T10:07:13;99486.69;;;20.49;17.58
74169;BME280;62523;53.336;83.690;2023-05-23T10:17:51;99484.81;;;20.97;17.66
74169;BME280;62523;53.336;83.690;2023-05-23T10:22:55;99480.56;;;20.76;17.80
74169;BME280;62523;53.336;83.690;2023-05-23T10:27:58;99477.22;;;20.64;17.56
74169;BME280;62523;53.336;83.690;2023-05-23T10:33:00;99467.72;;;20.80;17.88
74169;BME280;62523;53.336;83.690;2023-05-23T10:38:32;99471.53;;;21.05;18.12
74169;BME280;62523;53.336;83.690;2023-05-23T10:43:51;99484.28;;;20.65;17.51
74169;BME280;62523;53.336;83.690;2023-05-23T10:48:55;99474.72;;;20.63;17.50
74169;BME280;62523;53.336;83.690;2023-05-23T10:53:57;99476.16;;;20.85;17.74
74169;BME280;62523;53.336;83.690;2023-05-23T10:58:59;99476.66;;;20.71;17.58
74169;BME280;62523;53.336;83.690;2023-05-23T11:04:04;99482.75;;;20.63;17.29
74169;BME280;62523;53.336;83.690;2023-05-23T11:09:17;99469.91;;;20.66;17.00
74169;BME280;62523;53.336;83.690;2023-05-23T11:19:34;99470.84;;;21.03;16.66
74169;BME280;62523;53.336;83.690;2023-05-23T11:24:54;99474.91;;;20.79;16.79
74169;BME280;62523;53.336;83.690;2023-05-23T11:30:15;99477.56;;;20.89;16.80
74169;BME280;62523;53.336;83.690;2023-05-23T11:35:17;99478.34;;;20.99;16.78
74169;BME280;62523;53.336;83.690;2023-05-23T11:40:37;99469.28;;;20.82;17.19
74169;BME280;62523;53.336;83.690;2023-05-23T11:45:39;99453.84;;;20.94;17.37
74169;BME280;62523;53.336;83.690;2023-05-23T11:50:47;99465.09;;;20.70;17.94
74169;BME280;62523;53.336;83.690;2023-05-23T11:55:56;99474.06;;;20.79;17.79
74169;BME280;62523;53.336;83.690;2023-05-23T12:01:00;99465.69;;;20.92;17.99
74169;BME280;62523;53.336;83.690;2023-05-23T12:06:03;99466.66;;;21.46;17.36
74169;BME280;62523;53.336;83.690;2023-05-23T12:11:04;99467.44;;;22.00;16.93
74169;BME280;62523;53.336;83.690;2023-05-23T12:16:07;99464.84;;;22.35;16.80
74169;BME280;62523;53.336;83.690;2023-05-23T12:21:09;99455.19;;;22.42;16.57
74169;BME280;62523;53.336;83.690;2023-05-23T12:26:11;99473.19;;;21.87;17.19
74169;BME280;62523;53.336;83.690;2023-05-23T12:31:22;99461.88;;;22.20;16.67
74169;BME280;62523;53.336;83.690;2023-05-23T12:36:24;99468.19;;;21.66;16.74
74169;BME280;62523;53.336;83.690;2023-05-23T12:41:27;99472.44;;;21.95;16.66
74169;BME280;62523;53.336;83.690;2023-05-23T12:46:28;99471.88;;;22.09;16.92
74169;BME280;62523;53.336;83.690;2023-05-23T12:51:30;99468.09;;;21.76;17.60
74169;BME280;62523;53.336;83.690;2023-05-23T12:56:32;99461.63;;;22.05;17.06
74169;BME280;62523;53.336;83.690;2023-05-23T13:01:34;99465.56;;;21.93;17.31
74169;BME280;62523;53.336;83.690;2023-05-23T13:06:35;99461.41;;;21.80;17.22
74169;BME280;62523;53.336;83.690;2023-05-23T13:11:37;99464.03;;;21.36;17.94
74169;BME280;62523;53.336;83.690;2023-05-23T13:16:39;99473.81;;;21.27;18.06
74169;BME280;62523;53.336;83.690;2023-05-23T13:21:40;99473.84;;;21.00;18.41
74169;BME280;62523;53.336;83.690;2023-05-23T13:26:42;99482.91;;;20.89;18.68
74169;BME280;62523;53.336;83.690;2023-05-23T13:31:43;99478.94;;;20.65;19.24
74169;BME280;62523;53.336;83.690;2023-05-23T13:36:45;99481.97;;;20.80;19.11
74169;BME280;62523;53.336;83.690;2023-05-23T13:41:48;99476.13;;;20.00;19.98
74169;BME280;62523;53.336;83.690;2023-05-23T13:46:49;99475.69;;;19.56;20.45
74169;BME280;62523;53.336;83.690;2023-05-23T13:51:51;99476.38;;;19.39;20.92
74169;BME280;62523;53.336;83.690;2023-05-23T13:56:52;99476.75;;;19.24;20.97
74169;BME280;62523;53.336;83.690;2023-05-23T14:01:54;99479.56;;;19.13;21.43
74169;BME280;62523;53.336;83.690;2023-05-23T14:06:56;99475.31;;;19.01;21.47
74169;BME280;62523;53.336;83.690;2023-05-23T14:11:57;99486.22;;;18.78;21.94
74169;BME280;62523;53.336;83.690;2023-05-23T14:16:59;99484.56;;;18.66;22.25
74169;BME280;62523;53.336;83.690;2023-05-23T14:22:00;99483.69;;;18.56;22.50
74169;BME280;62523;53.336;83.690;2023-05-23T14:27:02;99482.00;;;18.55;22.32
74169;BME280;62523;53.336;83.690;2023-05-23T14:32:04;99488.78;;;18.38;22.74
74169;BME280;62523;53.336;83.690;2023-05-23T14:37:06;99488.72;;;18.28;22.97
74169;BME280;62523;53.336;83.690;2023-05-23T14:42:07;99502.59;;;18.22;23.43
74169;BME280;62523;53.336;83.690;2023-05-23T14:47:09;99508.06;;;17.99;23.52
74169;BME280;62523;53.336;83.690;2023-05-23T14:52:11;99510.66;;;17.90;23.65
74169;BME280;62523;53.336;83.690;2023-05-23T14:57:13;99518.06;;;17.86;23.67
74169;BME280;62523;53.336;83.690;2023-05-23T15:02:14;99523.72;;;17.93;23.38
74169;BME280;62523;53.336;83.690;2023-05-23T15:07:16;99523.00;;;17.91;23.32
74169;BME280;62523;53.336;83.690;2023-05-23T15:12:18;99510.91;;;17.87;23.40
74169;BME280;62523;53.336;83.690;2023-05-23T15:17:23;99522.69;;;17.73;23.70
74169;BME280;62523;53.336;83.690;2023-05-23T15:22:25;99525.75;;;17.68;23.72
74169;BME280;62523;53.336;83.690;2023-05-23T15:27:27;99527.50;;;17.47;24.13
74169;BME280;62523;53.336;83.690;2023-05-23T15:32:29;99535.72;;;17.44;24.15
74169;BME280;62523;53.336;83.690;2023-05-23T15:37:30;99532.75;;;17.26;24.57
74169;BME280;62523;53.336;83.690;2023-05-23T15:42:32;99531.66;;;17.17;24.82
74169;BME280;62523;53.336;83.690;2023-05-23T15:47:34;99528.88;;;17.07;25.16
74169;BME280;62523;53.336;83.690;2023-05-23T15:52:35;99522.22;;;16.79;25.47
74169;BME280;62523;53.336;83.690;2023-05-23T15:57:47;99533.47;;;16.71;25.76
74169;BME280;62523;53.336;83.690;2023-05-23T16:02:49;99541.53;;;16.47;26.49
74169;BME280;62523;53.336;83.690;2023-05-23T16:07:50;99542.97;;;16.29;26.81
74169;BME280;62523;53.336;83.690;2023-05-23T16:12:52;99538.31;;;16.20;27.06
74169;BME280;62523;53.336;83.690;2023-05-23T16:17:53;99545.91;;;16.13;27.19
74169;BME280;62523;53.336;83.690;2023-05-23T16:22:55;99545.03;;;15.90;27.74
74169;BME280;62523;53.336;83.690;2023-05-23T16:27:56;99537.88;;;15.90;27.71
74169;BME280;62523;53.336;83.690;2023-05-23T16:32:58;99539.19;;;15.85;28.07
74169;BME280;62523;53.336;83.690;2023-05-23T16:37:59;99547.09;;;15.73;28.25
74169;BME280;62523;53.336;83.690;2023-05-23T16:43:01;99549.97;;;15.70;28.09
74169;BME280;62523;53.336;83.690;2023-05-23T16:48:03;99554.84;;;15.64;28.48
74169;BME280;62523;53.336;83.690;2023-05-23T16:53:06;99546.69;;;15.67;28.44
74169;BME280;62523;53.336;83.690;2023-05-23T16:58:08;99553.88;;;15.53;28.62
74169;BME280;62523;53.336;83.690;2023-05-23T17:03:09;99560.66;;;15.57;28.68
74169;BME280;62523;53.336;83.690;2023-05-23T17:08:11;99558.66;;;15.48;28.87
74169;BME280;62523;53.336;83.690;2023-05-23T17:13:12;99552.06;;;15.54;28.57
74169;BME280;62523;53.336;83.690;2023-05-23T17:18:14;99546.28;;;15.60;28.70
74169;BME280;62523;53.336;83.690;2023-05-23T17:23:16;99542.81;;;15.60;28.65
74169;BME280;62523;53.336;83.690;2023-05-23T17:28:19;99551.50;;;15.62;28.65
74169;BME280;62523;53.336;83.690;2023-05-23T17:33:20;99546.09;;;15.50;29.10
74169;BME280;62523;53.336;83.690;2023-05-23T17:38:22;99547.69;;;15.53;28.52
74169;BME280;62523;53.336;83.690;2023-05-23T17:43:24;99555.50;;;15.43;28.85
74169;BME280;62523;53.336;83.690;2023-05-23T17:48:25;99540.44;;;15.31;28.93
74169;BME280;62523;53.336;83.690;2023-05-23T17:53:27;99541.25;;;15.44;28.70
74169;BME280;62523;53.336;83.690;2023-05-23T17:58:28;99537.59;;;15.34;28.91
74169;BME280;62523;53.336;83.690;2023-05-23T18:03:30;99539.09;;;15.25;28.87
74169;BME280;62523;53.336;83.690;2023-05-23T18:08:32;99539.31;;;15.22;29.07
74169;BME280;62523;53.336;83.690;2023-05-23T18:13:33;99541.75;;;15.25;28.81
74169;BME280;62523;53.336;83.690;2023-05-23T18:18:35;99532.66;;;15.17;28.82
74169;BME280;62523;53.336;83.690;2023-05-23T18:23:37;99534.53;;;15.27;28.56
74169;BME280;62523;53.336;83.690;2023-05-23T18:28:38;99531.91;;;15.14;28.97
74169;BME280;62523;53.336;83.690;2023-05-23T18:33:40;99532.38;;;14.95;29.30
74169;BME280;62523;53.336;83.690;2023-05-23T18:38:41;99531.09;;;14.88;29.61
74169;BME280;62523;53.336;83.690;2023-05-23T18:43:43;99533.66;;;14.77;29.92
74169;BME280;62523;53.336;83.690;2023-05-23T18:48:44;99533.88;;;14.74;30.06
74169;BME280;62523;53.336;83.690;2023-05-23T18:53:47;99530.06;;;14.52;30.42
74169;BME280;62523;53.336;83.690;2023-05-23T18:58:49;99534.63;;;14.63;30.29
74169;BME280;62523;53.336;83.690;2023-05-23T19:03:51;99537.34;;;14.49;30.54
74169;BME280;62523;53.336;83.690;2023-05-23T19:08:53;99534.94;;;14.46;30.65
74169;BME280;62523;53.336;83.690;2023-05-23T19:13:54;99539.25;;;14.34;30.79
74169;BME280;62523;53.336;83.690;2023-05-23T19:18:56;99541.69;;;14.11;31.44
74169;BME280;62523;53.336;83.690;2023-05-23T19:23:57;99544.41;;;13.97;31.76
74169;BME280;62523;53.336;83.690;2023-05-23T19:28:59;99545.09;;;13.86;32.06
74169;BME280;62523;53.336;83.690;2023-05-23T19:34:01;99537.25;;;13.85;32.10
74169;BME280;62523;53.336;83.690;2023-05-23T19:39:03;99527.38;;;13.74;32.42
74169;BME280;62523;53.336;83.690;2023-05-23T19:44:05;99526.72;;;13.58;32.63
74169;BME280;62523;53.336;83.690;2023-05-23T19:49:06;99523.31;;;13.56;32.56
74169;BME280;62523;53.336;83.690;2023-05-23T19:54:08;99521.41;;;13.58;32.56
74169;BME280;62523;53.336;83.690;2023-05-23T19:59:11;99519.78;;;13.42;32.82
74169;BME280;62523;53.336;83.690;2023-05-23T20:04:13;99518.59;;;13.46;32.84
74169;BME280;62523;53.336;83.690;2023-05-23T20:09:14;99525.06;;;13.42;32.91
74169;BME280;62523;53.336;83.690;2023-05-23T20:14:16;99518.00;;;13.28;33.47
74169;BME280;62523;53.336;83.690;2023-05-23T20:19:17;99519.50;;;13.32;33.47
74169;BME280;62523;53.336;83.690;2023-05-23T20:24:19;99523.09;;;13.31;33.49
74169;BME280;62523;53.336;83.690;2023-05-23T20:29:20;99519.59;;;13.31;33.37
74169;BME280;62523;53.336;83.690;2023-05-23T20:34:22;99519.09;;;13.24;33.77
74169;BME280;62523;53.336;83.690;2023-05-23T20:39:24;99516.03;;;13.03;34.48
74169;BME280;62523;53.336;83.690;2023-05-23T20:44:25;99517.19;;;12.85;34.85
74169;BME280;62523;53.336;83.690;2023-05-23T20:49:27;99527.59;;;12.59;35.17
74169;BME280;62523;53.336;83.690;2023-05-23T20:54:28;99532.31;;;12.54;35.27
74169;BME280;62523;53.336;83.690;2023-05-23T20:59:30;99536.06;;;12.64;35.22
74169;BME280;62523;53.336;83.690;2023-05-23T21:04:32;99537.78;;;12.65;35.10
74169;BME280;62523;53.336;83.690;2023-05-23T21:09:33;99542.69;;;12.57;35.35
74169;BME280;62523;53.336;83.690;2023-05-23T21:14:43;99546.66;;;12.64;35.32
74169;BME280;62523;53.336;83.690;2023-05-23T21:19:44;99549.09;;;12.53;35.49
74169;BME280;62523;53.336;83.690;2023-05-23T21:24:46;99549.31;;;12.50;35.46
74169;BME280;62523;53.336;83.690;2023-05-23T21:29:48;99550.22;;;12.49;35.69
74169;BME280;62523;53.336;83.690;2023-05-23T21:34:49;99547.88;;;12.44;35.59
74169;BME280;62523;53.336;83.690;2023-05-23T21:39:51;99556.91;;;12.40;35.87
74169;BME280;62523;53.336;83.690;2023-05-23T21:44:55;99550.13;;;12.36;36.09
74169;BME280;62523;53.336;83.690;2023-05-23T21:49:59;99552.88;;;12.35;36.32
74169;BME280;62523;53.336;83.690;2023-05-23T21:55:01;99557.91;;;12.23;36.66
74169;BME280;62523;53.336;83.690;2023-05-23T22:00:05;99561.78;;;12.18;36.85
74169;BME280;62523;53.336;83.690;2023-05-23T22:05:14;99557.78;;;12.11;37.14
74169;BME280;62523;53.336;83.690;2023-05-23T22:10:16;99564.81;;;11.96;37.53
74169;BME280;62523;53.336;83.690;2023-05-23T22:15:17;99556.91;;;11.96;37.68
74169;BME280;62523;53.336;83.690;2023-05-23T22:20:21;99562.13;;;11.81;38.21
74169;BME280;62523;53.336;83.690;2023-05-23T22:25:23;99562.03;;;11.67;38.61
74169;BME280;62523;53.336;83.690;2023-05-23T22:30:25;99560.66;;;11.76;38.62
74169;BME280;62523;53.336;83.690;2023-05-23T22:35:27;99573.63;;;11.64;38.92
74169;BME280;62523;53.336;83.690;2023-05-23T22:40:29;99566.28;;;11.85;38.70
74169;BME280;62523;53.336;83.690;2023-05-23T22:45:31;99568.31;;;11.80;38.82
74169;BME280;62523;53.336;83.690;2023-05-23T22:50:40;99556.66;;;11.84;38.87
74169;BME280;62523;53.336;83.690;2023-05-23T22:55:45;99561.75;;;11.87;38.89
74169;BME280;62523;53.336;83.690;2023-05-23T23:00:46;99567.47;;;11.96;38.48
74169;BME280;62523;53.336;83.690;2023-05-23T23:05:48;99575.22;;;11.99;39.07
74169;BME280;62523;53.336;83.690;2023-05-23T23:10:49;99567.38;;;11.97;39.33
74169;BME280;62523;53.336;83.690;2023-05-23T23:15:51;99558.03;;;11.92;39.24
74169;BME280;62523;53.336;83.690;2023-05-23T23:20:52;99571.25;;;12.36;38.58
74169;BME280;62523;53.336;83.690;2023-05-23T23:25:56;99576.59;;;13.08;37.11
74169;BME280;62523;53.336;83.690;2023-05-23T23:30:59;99570.41;;;13.78;36.34
74169;BME280;62523;53.336;83.690;2023-05-23T23:36:01;99577.56;;;13.48;36.61
74169;BME280;62523;53.336;83.690;2023-05-23T23:41:02;99577.91;;;13.15;37.00
74169;BME280;62523;53.336;83.690;2023-05-23T23:46:04;99579.88;;;13.95;35.86
74169;BME280;62523;53.336;83.690;2023-05-23T23:51:06;99581.03;;;13.90;35.95
74169;BME280;62523;53.336;83.690;2023-05-23T23:56:07;99583.47;;;14.46;35.16
